Thunder radar more information blitzortung!


Radar de pluja more information rain snow radar


Visita la nostra xarxa de llocs de meteo:

Template documentation
and downloads

And another site



No particular awareness of the weather is required.    There are no Weather-warnings

Pagina Historial Weather Underground text

Diari Resum Desembre 9, 2017 Unitats:  Imperial    Mètric   Tant
« Previous Dia
SegĂźent Dia »
Diari Setmana Mensual Anual Personalitzada
  Maxima: Minima: Media:
Temperatura: 52 °F 35.2 °F 45.1 °F
Punt de rosada: 35.6 °F 27.1 °F 32.4 °F
Humitat: 72 % 53 % 61 %
Wind Speed: 8.1 mph 0 mph 2.2 mph
RĂ fegues de vent: 8.1 mph - -
Vent:- - SE
Pression baro: 30.2 in 30.1 in -
Precipitacions: 0 in    
Historical Graphs
 
 
Dades de taula per Desembre 9, 2017
Temps Temperatura Punt de rosada Pression baro Vent Wind Speed RĂ fegues de vent Humitat Rainfall Rate (Hourly)
00:03 39.6 °F 29.8 °F 30.1 in NW 1.6 mph   68 % 0 in
00:10 36.7 °F 28.6 °F 30.1 in Calm     72 % 0 in
00:20 36.3 °F 27.9 °F 30.1 in West 1 mph 2 mph 71 % 0 in
00:30 36.5 °F 28.2 °F 30.1 in Calm   2 mph 72 % 0 in
00:40 36.5 °F 28.2 °F 30.1 in Calm   1 mph 72 % 0 in
00:50 36.5 °F 28.2 °F 30.1 in West 1 mph 2 mph 72 % 0 in
01:00 36.5 °F 28.2 °F 30.1 in NW 1 mph 2 mph 72 % 0 in
01:10 36.1 °F 28 °F 30.1 in North 1 mph 2 mph 72 % 0 in
01:20 36 °F 27.9 °F 30.1 in Calm   1 mph 72 % 0 in
01:30 36 °F 27.9 °F 30.1 in North 1 mph 1 mph 72 % 0 in
01:40 35.6 °F 27.5 °F 30.1 in NW 1 mph 2 mph 72 % 0 in
01:50 35.8 °F 27.7 °F 30.2 in NW 2 mph 2 mph 72 % 0 in
02:00 35.6 °F 27.5 °F 30.2 in Calm   2 mph 72 % 0 in
02:10 35.2 °F 27.1 °F 30.2 in NW 1 mph 1 mph 72 % 0 in
02:20 35.6 °F 27.5 °F 30.2 in NW 1 mph 2 mph 72 % 0 in
02:30 35.6 °F 27.5 °F 30.2 in NNE 1 mph 3 mph 72 % 0 in
02:50 36.1 °F 28 °F 30.2 in NNW 1 mph 4 mph 72 % 0 in
03:10 36.7 °F 28.6 °F 30.2 in Calm   1 mph 72 % 0 in
03:20 38.1 °F 29.8 °F 30.2 in NNE 1 mph 3 mph 72 % 0 in
09:23 38.7 °F 30.4 °F 30.2 in NNE 1.4 mph 1.4 mph 72 % 0 in
09:25 39 °F 30.7 °F 30.2 in NNE 3.5 mph 3.5 mph 72 % 0 in
09:40 40.1 °F 31.1 °F 30.2 in WSW 4.6 mph 4.6 mph 70 % 0 in
09:50 41.5 °F 32.5 °F 30.2 in South 2.3 mph 2.3 mph 70 % 0 in
09:55 42.3 °F 32.7 °F 30.2 in ENE 1.6 mph 1.6 mph 69 % 0 in
10:05 42.4 °F 32.5 °F 30.2 in WNW 2.3 mph 2.3 mph 68 % 0 in
10:15 42.8 °F 32.5 °F 30.2 in ENE 2 mph 2 mph 67 % 0 in
10:20 43 °F 32.7 °F 30.2 in NNW 4.6 mph 4.6 mph 67 % 0 in
10:25 43.3 °F 33.1 °F 30.2 in ENE 3.5 mph 3.5 mph 67 % 0 in
10:30 43.7 °F 33.1 °F 30.2 in NE 3.5 mph 3.5 mph 66 % 0 in
10:40 44.4 °F 33.4 °F 30.2 in East 2.3 mph 2.3 mph 65 % 0 in
10:45 43.5 °F 32.5 °F 30.2 in NNE 5.8 mph 5.8 mph 65 % 0 in
10:55 43.7 °F 32.4 °F 30.2 in NNE 3.5 mph 3.5 mph 64 % 0 in
11:00 44.1 °F 32.7 °F 30.2 in NNE 2.9 mph 2.9 mph 64 % 0 in
11:05 44.1 °F 32.7 °F 30.2 in WSW 3.5 mph 3.5 mph 64 % 0 in
11:10 44.2 °F 32.4 °F 30.2 in NNE 2.3 mph 2.3 mph 63 % 0 in
11:20 44.6 °F 32.7 °F 30.2 in ENE 3.6 mph 3.6 mph 63 % 0 in
11:26 44.6 °F 32.7 °F 30.2 in NNE 3.5 mph 3.5 mph 63 % 0 in
11:31 44.6 °F 32.4 °F 30.2 in ENE 4.6 mph 4.6 mph 62 % 0 in
11:36 45 °F 32.7 °F 30.2 in NNE 4.6 mph 4.6 mph 62 % 0 in
11:41 45.5 °F 33.3 °F 30.2 in North 3.5 mph 3.5 mph 62 % 0 in
11:46 45.7 °F 33.4 °F 30.2 in NE 3.3 mph 3.3 mph 62 % 0 in
11:51 46.2 °F 34 °F 30.2 in ESE 2.3 mph 2.3 mph 62 % 0 in
11:56 46.4 °F 33.6 °F 30.2 in NNE 4.6 mph 4.6 mph 61 % 0 in
12:01 46 °F 33.3 °F 30.2 in ENE 5.8 mph 5.8 mph 61 % 0 in
12:06 46.6 °F 33.8 °F 30.2 in NE 4.3 mph 4.3 mph 61 % 0 in
12:11 46.6 °F 33.8 °F 30.2 in NNE 5.8 mph 5.8 mph 61 % 0 in
12:16 46.9 °F 33.8 °F 30.2 in WNW 3.5 mph 3.5 mph 60 % 0 in
12:21 47.3 °F 34.2 °F 30.2 in ENE 3.6 mph 3.6 mph 60 % 0 in
12:26 47.5 °F 34.3 °F 30.2 in ENE 3.3 mph 3.3 mph 60 % 0 in
12:31 47.5 °F 34 °F 30.2 in NNE 3.5 mph 3.5 mph 59 % 0 in
12:36 47.8 °F 34.2 °F 30.2 in NE 4.6 mph 4.6 mph 59 % 0 in
12:41 48 °F 34.3 °F 30.2 in NNE 4 mph 4 mph 59 % 0 in
12:46 48.2 °F 34.2 °F 30.2 in North 4.3 mph 4.3 mph 58 % 0 in
12:51 48.4 °F 34.3 °F 30.2 in NNE 3.5 mph 3.5 mph 58 % 0 in
12:56 48.7 °F 34.5 °F 30.2 in NNE 2.3 mph 2.3 mph 58 % 0 in
13:01 49.3 °F 35.1 °F 30.2 in NNE 2.4 mph 2.4 mph 58 % 0 in
13:06 48.9 °F 34.3 °F 30.2 in ENE 4.6 mph 4.6 mph 57 % 0 in
13:11 48.7 °F 33.6 °F 30.2 in ENE 4.6 mph 4.6 mph 56 % 0 in
13:16 49.1 °F 34.5 °F 30.2 in ENE 2.3 mph 2.3 mph 57 % 0 in
13:21 49.6 °F 35.1 °F 30.2 in ENE 3.5 mph 3.5 mph 57 % 0 in
13:26 49.8 °F 34.7 °F 30.2 in ENE 2.3 mph 2.3 mph 56 % 0 in
13:31 50.2 °F 35.1 °F 30.2 in ENE 1.2 mph   56 % 0 in
13:36 50 °F 34.5 °F 30.2 in ESE 4.6 mph 4.6 mph 55 % 0 in
13:41 49.6 °F 34.2 °F 30.2 in ESE 3.5 mph 3.5 mph 55 % 0 in
13:51 49.6 °F 34.2 °F 30.2 in ESE 3.3 mph 3.3 mph 55 % 0 in
13:56 49.6 °F 34.2 °F 30.2 in ENE 2.3 mph 2.3 mph 55 % 0 in
14:00 44.8 °F 30.9 °F 30.1 in Calm     58 % 0 in
14:01 50 °F 34.5 °F 30.2 in NE 2.4 mph 2.6 mph 55 % 0 in
14:06 49.8 °F 34.3 °F 30.2 in SE 4.6 mph 4.6 mph 55 % 0 in
14:10 44.6 °F 30.7 °F 30.1 in Calm     58 % 0 in
14:14 50 °F 34 °F 30.2 in ESE 4.6 mph 4.6 mph 54 % 0 in
14:29 50.4 °F 34.3 °F 30.2 in East 4.6 mph 4.6 mph 54 % 0 in
14:30 43.7 °F 30.4 °F 30.1 in NNE 1 mph 2 mph 59 % 0 in
14:44 51.4 °F 34.9 °F 30.2 in SSE 3.5 mph 3.5 mph 53 % 0 in
14:49 51.8 °F 35.2 °F 30.2 in SSE 4.6 mph 4.6 mph 53 % 0 in
14:50 43 °F 29.7 °F 30.1 in NNW 1 mph 2 mph 59 % 0 in
14:59 52 °F 35.4 °F 30.1 in SE 4.6 mph 4.6 mph 53 % 0 in
15:00 42.4 °F 29.5 °F 30.1 in Calm   2 mph 60 % 0 in
15:10 42.1 °F 29.7 °F 30.1 in Calm     61 % 0 in
15:14 51.6 °F 35.1 °F 30.2 in SE 5.8 mph 5.8 mph 53 % 0 in
15:19 51.1 °F 34.5 °F 30.2 in East 8.1 mph 8.1 mph 53 % 0 in
15:20 42.1 °F 29.7 °F 30.1 in West 1 mph 1 mph 61 % 0 in
15:24 50.7 °F 34.2 °F 30.2 in ESE 8.1 mph 8.1 mph 53 % 0 in
15:29 50.5 °F 34.5 °F 30.2 in ESE 5.8 mph 5.8 mph 54 % 0 in
15:30 42.1 °F 30 °F 30.1 in Calm   1 mph 62 % 0 in
15:34 50.4 °F 34.3 °F 30.2 in ESE 5.8 mph 5.8 mph 54 % 0 in
15:39 50.4 °F 34.3 °F 30.2 in East 4.6 mph 4.6 mph 54 % 0 in
15:40 42.3 °F 30.2 °F 30.1 in WSW 1 mph 2 mph 62 % 0 in
15:44 50.5 °F 34.5 °F 30.2 in East 2.6 mph 2.9 mph 54 % 0 in
15:49 50.5 °F 34.5 °F 30.2 in NNE 3.5 mph 3.5 mph 54 % 0 in
15:50 42.4 °F 30.4 °F 30.1 in SW 1 mph 2 mph 62 % 0 in
15:54 50.7 °F 35.1 °F 30.2 in ENE 3.5 mph 3.5 mph 55 % 0 in
15:59 50.4 °F 34.9 °F 30.2 in ESE 3.5 mph 3.5 mph 55 % 0 in
16:00 42.6 °F 30.6 °F 30.1 in Calm   2 mph 62 % 0 in
16:04 50.5 °F 35.4 °F 30.2 in ENE 2.3 mph 2.3 mph 56 % 0 in
16:09 50.5 °F 35.4 °F 30.2 in ENE 3.5 mph 3.5 mph 56 % 0 in
16:10 42.6 °F 30.9 °F 30.1 in Calm     63 % 0 in
16:14 50.7 °F 35.6 °F 30.2 in ENE 2.3 mph 2.3 mph 56 % 0 in
16:19 50.7 °F 35.1 °F 30.2 in ESE 3.5 mph 3.5 mph 55 % 0 in
16:20 42.6 °F 30.9 °F 30.1 in Calm   1 mph 63 % 0 in
16:24 50.7 °F 35.1 °F 30.2 in ENE 2.3 mph 2.3 mph 55 % 0 in
16:34 50.9 °F 35.2 °F 30.1 in NE 2.3 mph 2.3 mph 55 % 0 in
16:39 50.9 °F 35.2 °F 30.1 in East 2 mph 2 mph 55 % 0 in
16:44 50.7 °F 35.6 °F 30.2 in NNE 2.3 mph 2.3 mph 56 % 0 in
16:49 50.7 °F 35.6 °F 30.2 in NE 3.1 mph 3.1 mph 56 % 0 in
16:54 50.5 °F 35.4 °F 30.2 in NE 2.6 mph 2.6 mph 56 % 0 in
16:59 50.4 °F 35.2 °F 30.2 in ENE 2.3 mph 2.3 mph 56 % 0 in
17:04 50.2 °F 35.1 °F 30.2 in ENE 1.2 mph   56 % 0 in
17:14 50 °F 35.4 °F 30.1 in WSW 2.3 mph 2.3 mph 57 % 0 in
17:19 49.8 °F 35.2 °F 30.1 in West 2.3 mph 2.3 mph 57 % 0 in
17:24 49.5 °F 34.9 °F 30.1 in West 1.2 mph 1.2 mph 57 % 0 in
17:29 49.1 °F 34.5 °F 30.2 in SW 1.2 mph 1.2 mph 57 % 0 in
17:34 48.7 °F 34.2 °F 30.2 in SW 1.4 mph   57 % 0 in
17:39 48.6 °F 34 °F 30.2 in Calm     57 % 0 in
17:49 48.2 °F 33.6 °F 30.1 in WSW 1.2 mph   57 % 0 in
17:59 47.7 °F 32.7 °F 30.1 in WSW 1.2 mph 1.2 mph 56 % 0 in
18:04 47.3 °F 32.4 °F 30.1 in SW 1.6 mph 1.6 mph 56 % 0 in
18:09 47.1 °F 32.2 °F 30.1 in SW 1.2 mph 1.2 mph 56 % 0 in
18:14 46.8 °F 32.4 °F 30.1 in Calm     57 % 0 in
18:20 46.6 °F 32.2 °F 30.1 in SW 1.2 mph 1.4 mph 57 % 0 in
18:25 46.4 °F 32 °F 30.1 in WSW 1.6 mph   57 % 0 in
18:30 46.4 °F 32 °F 30.1 in WSW 2.3 mph 2.3 mph 57 % 0 in
18:35 46.2 °F 31.8 °F 30.1 in WSW 1.2 mph   57 % 0 in
18:45 45.7 °F 31.3 °F 30.1 in WSW 0.9 mph   57 % 0 in
18:50 45.7 °F 31.3 °F 30.1 in SW 2.3 mph 2.3 mph 57 % 0 in
18:55 45.7 °F 31.3 °F 30.1 in WSW 1.2 mph 1.2 mph 57 % 0 in
19:00 45.5 °F 31.6 °F 30.1 in SW 1.2 mph 1.2 mph 58 % 0 in
19:05 45.5 °F 31.6 °F 30.1 in SW 1.2 mph 1.2 mph 58 % 0 in
19:10 45.3 °F 31.5 °F 30.1 in WSW 2.3 mph 2.3 mph 58 % 0 in
19:15 45.1 °F 31.3 °F 30.1 in WSW 1.2 mph 1.2 mph 58 % 0 in
19:25 45.1 °F 31.3 °F 30.1 in West 2.3 mph 2.3 mph 58 % 0 in
19:30 45.1 °F 31.3 °F 30.1 in WSW 2.3 mph 2.3 mph 58 % 0 in
19:35 45.3 °F 31.5 °F 30.1 in WSW 1.2 mph 1.2 mph 58 % 0 in
19:45 45.1 °F 31.3 °F 30.1 in WSW 1.2 mph   58 % 0 in
19:50 45.1 °F 31.3 °F 30.1 in WSW 1.2 mph   58 % 0 in
22:29 42.6 °F 31.3 °F 30.1 in NNE 1.2 mph   64 % 0 in
22:34 42.6 °F 31.3 °F 30.1 in Calm     64 % 0 in
22:39 42.6 °F 31.3 °F 30.1 in NE 1.4 mph 1.4 mph 64 % 0 in
22:44 42.4 °F 31.1 °F 30.1 in NE 1.4 mph 1.4 mph 64 % 0 in
22:49 42.3 °F 30.9 °F 30.1 in NE 1.2 mph 1.2 mph 64 % 0 in
22:54 42.3 °F 30.9 °F 30.1 in Calm     64 % 0 in
22:59 42.1 °F 30.7 °F 30.1 in Calm     64 % 0 in
23:04 42.1 °F 30.7 °F 30.1 in Calm     64 % 0 in
23:09 42.1 °F 30.7 °F 30.1 in Calm     64 % 0 in
23:14 42.1 °F 30.7 °F 30.1 in Calm     64 % 0 in
23:29 41.9 °F 30.6 °F 30.1 in ENE 2.3 mph 2.3 mph 64 % 0 in
23:34 41.9 °F 30.6 °F 30.1 in Calm     64 % 0 in
23:39 41.7 °F 30.4 °F 30.1 in Calm     64 % 0 in
23:44 41.7 °F 30.4 °F 30.1 in WSW 1.2 mph   64 % 0 in
23:49 41.5 °F 30.4 °F 30.1 in WSW 1.4 mph 1.4 mph 64 % 0 in
23:54 41.5 °F 30.4 °F 30.1 in WSW 2.3 mph 2.3 mph 64 % 0 in
23:59 41.5 °F 30.4 °F 30.1 in SW 1.2 mph   64 % 0 in
Meteo Sesrovires
Elogis d' Weather Underground - 3.25 mb

Guio original per  Jim McMurry - jmcmurry@mwt.net Adaptat per a la plantilla per  Wim van der Kuil - Leuven-Template.eu

Trobareu la nostra informacio del temps tambe a:

Weather Underground

AWEKAS